Time;durP1;ratioP1;P1;durP2;ratioP2;P2;SDS_P1;SDS_P2;PMS_P1;PMS_P2;Temp;Humidity;BMP_temperature;BMP_pressure;BME280_temperature;BME280_humidity;BME280_pressure;Samples;Min_cycle;Max_cycle;Signal;HPM_P1;HPM_P2
2023/04/11 00:01:32;;;;;;;10.05;4.78;;;;;;;;;;5048914;28;20052;-68
2023/04/11 00:03:58;;;;;;;9.50;4.38;;;;;;;;;;5042776;28;20083;-70
2023/04/11 00:06:24;;;;;;;10.35;4.20;;;;;;;;;;5050615;28;20040;-68
2023/04/11 00:08:50;;;;;;;9.70;4.20;;;;;;;;;;5050491;28;20471;-66
2023/04/11 00:11:15;;;;;;;9.82;4.80;;;;;;;;;;5052550;28;20028;-69
2023/04/11 00:13:40;;;;;;;9.27;4.43;;;;;;;;;;5061672;28;20021;-69
2023/04/11 00:16:07;;;;;;;10.13;4.63;;;;;;;;;;5031862;28;20033;-68
2023/04/11 00:18:34;;;;;;;8.57;3.92;;;;;;;;;;5039057;28;20363;-69
2023/04/11 00:21:00;;;;;;;12.45;4.97;;;;;;;;;;5058015;28;20390;-67
2023/04/11 00:23:25;;;;;;;9.52;4.05;;;;;;;;;;5048416;28;20096;-69
2023/04/11 00:25:50;;;;;;;10.82;4.47;;;;;;;;;;5053335;28;20036;-67
2023/04/11 00:28:15;;;;;;;7.60;4.10;;;;;;;;;;5067974;28;20021;-66
2023/04/11 00:30:40;;;;;;;11.20;4.30;;;;;;;;;;5047219;28;20282;-67
2023/04/11 00:33:06;;;;;;;9.55;4.68;;;;;;;;;;5053084;28;20039;-66
2023/04/11 00:35:33;;;;;;;10.63;4.47;;;;;;;;;;5059095;28;20067;-69
2023/04/11 00:38:00;;;;;;;9.02;4.22;;;;;;;;;;5047426;28;20025;-66
2023/04/11 00:40:25;;;;;;;9.88;4.43;;;;;;;;;;5062137;28;20013;-68
2023/04/11 00:42:50;;;;;;;10.23;4.65;;;;;;;;;;5059160;28;20373;-68
2023/04/11 00:45:15;;;;;;;8.80;4.05;;;;;;;;;;5055021;28;20097;-67
2023/04/11 00:47:41;;;;;;;8.65;4.72;;;;;;;;;;5056345;28;20029;-68
2023/04/11 00:50:07;;;;;;;8.40;4.00;;;;;;;;;;5048044;28;20510;-66
2023/04/11 00:52:33;;;;;;;14.18;4.80;;;;;;;;;;5047809;28;20029;-69
2023/04/11 00:55:00;;;;;;;8.82;4.20;;;;;;;;;;5048119;28;20021;-67
2023/04/11 00:57:25;;;;;;;7.95;4.35;;;;;;;;;;5058117;28;20028;-66
2023/04/11 00:59:51;;;;;;;10.73;4.55;;;;;;;;;;5051870;28;20029;-68
2023/04/11 01:02:17;;;;;;;11.20;4.10;;;;;;;;;;5036307;28;20460;-65
2023/04/11 01:04:42;;;;;;;10.07;4.20;;;;;;;;;;5060669;28;20419;-70
2023/04/11 01:07:09;;;;;;;8.32;4.20;;;;;;;;;;5061580;28;20615;-67
2023/04/11 01:09:35;;;;;;;12.57;4.22;;;;;;;;;;5053327;28;20116;-66
2023/04/11 01:12:01;;;;;;;9.77;4.13;;;;;;;;;;5048505;28;20035;-65
2023/04/11 01:14:27;;;;;;;8.55;4.03;;;;;;;;;;5048986;28;20120;-66
2023/04/11 01:16:55;;;;;;;7.90;3.90;;;;;;;;;;5029862;28;20462;-68
2023/04/11 01:19:20;;;;;;;9.73;4.25;;;;;;;;;;5056658;28;20020;-69
2023/04/11 01:21:47;;;;;;;8.88;4.20;;;;;;;;;;5046061;28;20359;-64
2023/04/11 01:24:12;;;;;;;7.55;3.90;;;;;;;;;;5064733;28;20031;-69
2023/04/11 01:26:37;;;;;;;8.65;4.32;;;;;;;;;;5067122;28;20040;-65
2023/04/11 01:29:03;;;;;;;7.68;3.88;;;;;;;;;;5047658;28;20040;-68
2023/04/11 01:31:28;;;;;;;9.82;4.22;;;;;;;;;;5041641;28;20391;-67
2023/04/11 01:33:53;;;;;;;7.47;4.05;;;;;;;;;;5052681;28;20024;-68
2023/04/11 01:36:19;;;;;;;7.45;3.67;;;;;;;;;;5056344;28;20559;-68
2023/04/11 01:38:44;;;;;;;8.95;4.10;;;;;;;;;;5064223;28;20363;-66
2023/04/11 01:41:09;;;;;;;9.18;4.15;;;;;;;;;;5068078;28;20033;-68
2023/04/11 01:43:35;;;;;;;9.25;4.53;;;;;;;;;;5051141;28;20025;-66
2023/04/11 01:46:00;;;;;;;10.40;4.15;;;;;;;;;;5057365;28;20025;-69
2023/04/11 01:48:26;;;;;;;10.10;4.20;;;;;;;;;;5053542;28;20025;-68
2023/04/11 01:50:51;;;;;;;10.07;4.38;;;;;;;;;;5065927;28;20032;-68
2023/04/11 01:53:17;;;;;;;10.23;4.50;;;;;;;;;;5064032;28;20013;-66
2023/04/11 01:55:42;;;;;;;11.15;5.10;;;;;;;;;;5051462;28;20152;-69
2023/04/11 01:58:07;;;;;;;13.30;5.38;;;;;;;;;;5066862;28;20016;-64
2023/04/11 02:00:35;;;;;;;11.65;5.07;;;;;;;;;;5071493;28;20025;-68
2023/04/11 02:03:01;;;;;;;9.10;4.70;;;;;;;;;;5051355;28;20027;-68
2023/04/11 02:05:26;;;;;;;10.93;5.30;;;;;;;;;;5071468;28;20028;-68
2023/04/11 02:07:51;;;;;;;11.23;4.72;;;;;;;;;;5067765;28;20482;-67
2023/04/11 02:10:16;;;;;;;11.07;4.75;;;;;;;;;;5060149;28;20494;-67
2023/04/11 02:12:41;;;;;;;11.65;5.18;;;;;;;;;;5057861;28;20056;-68
2023/04/11 02:15:07;;;;;;;10.02;4.90;;;;;;;;;;5040071;28;20009;-65
2023/04/11 02:17:32;;;;;;;9.98;4.65;;;;;;;;;;5039029;28;20020;-66
2023/04/11 02:19:58;;;;;;;11.18;5.20;;;;;;;;;;5070899;28;20245;-69
2023/04/11 02:22:23;;;;;;;11.65;5.13;;;;;;;;;;5057095;28;20056;-66
2023/04/11 02:24:50;;;;;;;12.50;4.75;;;;;;;;;;5061413;28;20099;-69
2023/04/11 02:27:15;;;;;;;11.45;5.13;;;;;;;;;;5065840;28;20024;-68
2023/04/11 02:29:40;;;;;;;9.45;4.65;;;;;;;;;;5063799;28;20390;-68
2023/04/11 02:32:05;;;;;;;11.15;5.05;;;;;;;;;;5051905;28;20075;-66
2023/04/11 02:34:31;;;;;;;10.93;5.35;;;;;;;;;;5058728;28;20032;-69
2023/04/11 02:36:56;;;;;;;10.05;4.90;;;;;;;;;;5064107;28;20065;-67
2023/04/11 02:39:22;;;;;;;10.93;5.32;;;;;;;;;;5070420;28;20500;-68
2023/04/11 02:41:48;;;;;;;10.38;5.13;;;;;;;;;;5070525;28;20058;-68
2023/04/11 02:44:13;;;;;;;10.55;6.30;;;;;;;;;;5070725;28;20067;-66
2023/04/11 02:46:38;;;;;;;11.02;5.63;;;;;;;;;;5054158;28;20025;-69
2023/04/11 02:49:04;;;;;;;11.43;5.05;;;;;;;;;;5049672;28;20095;-67
2023/04/11 02:51:29;;;;;;;11.25;5.03;;;;;;;;;;5051206;28;20017;-67
2023/04/11 02:53:55;;;;;;;12.07;5.60;;;;;;;;;;5062195;28;20017;-67
2023/04/11 02:56:20;;;;;;;13.25;5.85;;;;;;;;;;5062985;28;20142;-67
2023/04/11 02:58:45;;;;;;;15.82;5.63;;;;;;;;;;5049718;28;20040;-67
2023/04/11 03:01:11;;;;;;;10.75;5.75;;;;;;;;;;5064210;28;20510;-68
2023/04/11 03:03:37;;;;;;;11.55;5.75;;;;;;;;;;5049090;28;20053;-67
2023/04/11 03:06:03;;;;;;;10.65;5.35;;;;;;;;;;5063385;28;20021;-66
2023/04/11 03:08:28;;;;;;;10.20;5.65;;;;;;;;;;5050151;28;20105;-68
2023/04/11 03:10:53;;;;;;;13.20;6.28;;;;;;;;;;5063569;28;20020;-69
2023/04/11 03:13:18;;;;;;;11.20;5.65;;;;;;;;;;5055937;28;20020;-68
2023/04/11 03:15:43;;;;;;;13.65;5.78;;;;;;;;;;5031494;28;20071;-68
2023/04/11 03:18:09;;;;;;;11.02;6.05;;;;;;;;;;5036580;28;20025;-68
2023/04/11 03:20:34;;;;;;;11.00;5.45;;;;;;;;;;5049594;28;20032;-68
2023/04/11 03:22:59;;;;;;;16.00;6.30;;;;;;;;;;5048762;28;20096;-69
2023/04/11 03:25:26;;;;;;;13.73;5.82;;;;;;;;;;5063977;28;20390;-69
2023/04/11 03:27:52;;;;;;;10.27;5.75;;;;;;;;;;5061348;28;20024;-68
2023/04/11 03:30:17;;;;;;;12.35;6.65;;;;;;;;;;5043886;28;20017;-70
2023/04/11 03:32:42;;;;;;;11.25;5.70;;;;;;;;;;5055991;28;20031;-66
2023/04/11 03:35:07;;;;;;;11.18;5.60;;;;;;;;;;5058154;28;20021;-68
2023/04/11 03:37:33;;;;;;;11.20;5.57;;;;;;;;;;5054858;28;20461;-66
2023/04/11 03:39:58;;;;;;;12.98;6.18;;;;;;;;;;5069299;28;20024;-69
2023/04/11 03:42:23;;;;;;;11.95;6.15;;;;;;;;;;5056493;28;20031;-66
2023/04/11 03:44:48;;;;;;;11.75;6.05;;;;;;;;;;5055970;28;20017;-67
2023/04/11 03:47:14;;;;;;;13.68;5.88;;;;;;;;;;5066172;28;20170;-66
2023/04/11 03:49:39;;;;;;;10.50;5.38;;;;;;;;;;5068647;28;20028;-66
2023/04/11 03:52:05;;;;;;;12.70;6.07;;;;;;;;;;5048279;28;20023;-67
2023/04/11 03:54:30;;;;;;;12.20;6.07;;;;;;;;;;5047582;28;20083;-66
2023/04/11 03:56:56;;;;;;;10.40;5.75;;;;;;;;;;5048502;28;20113;-68
2023/04/11 03:59:21;;;;;;;9.90;5.05;;;;;;;;;;5061342;28;20036;-68
2023/04/11 04:01:46;;;;;;;10.68;5.70;;;;;;;;;;5055648;28;20056;-69
2023/04/11 04:04:11;;;;;;;11.30;5.63;;;;;;;;;;5058825;28;20029;-66
2023/04/11 04:06:37;;;;;;;13.40;5.63;;;;;;;;;;5061847;28;20135;-67
2023/04/11 04:09:03;;;;;;;9.82;4.95;;;;;;;;;;5051682;28;20090;-65
2023/04/11 04:11:28;;;;;;;10.20;5.57;;;;;;;;;;5049427;28;20617;-65
2023/04/11 04:13:54;;;;;;;13.70;5.88;;;;;;;;;;5043475;28;20029;-69
2023/04/11 04:16:19;;;;;;;10.40;5.50;;;;;;;;;;5029507;28;20037;-66
2023/04/11 04:18:45;;;;;;;11.85;5.40;;;;;;;;;;5053508;28;20038;-68
2023/04/11 04:21:10;;;;;;;12.70;5.82;;;;;;;;;;5049193;28;20025;-67
2023/04/11 04:23:37;;;;;;;11.82;5.28;;;;;;;;;;5048090;28;20127;-68
2023/04/11 04:26:03;;;;;;;12.77;6.03;;;;;;;;;;5062489;28;20359;-68
2023/04/11 04:28:28;;;;;;;12.73;5.55;;;;;;;;;;5047651;28;20541;-65
2023/04/11 04:30:56;;;;;;;10.25;5.55;;;;;;;;;;5054561;28;20032;-69
2023/04/11 04:33:22;;;;;;;10.60;5.05;;;;;;;;;;5042484;28;20052;-65
2023/04/11 04:35:50;;;;;;;11.75;5.95;;;;;;;;;;5061231;28;20033;-66
2023/04/11 04:38:17;;;;;;;9.85;5.40;;;;;;;;;;5046911;28;20113;-68
2023/04/11 04:40:42;;;;;;;11.43;6.00;;;;;;;;;;5068040;28;20028;-67
2023/04/11 04:43:10;;;;;;;11.95;6.00;;;;;;;;;;5068500;28;20398;-68
2023/04/11 04:45:35;;;;;;;12.80;6.47;;;;;;;;;;5055203;28;20044;-69
2023/04/11 04:48:00;;;;;;;11.35;5.97;;;;;;;;;;5054231;28;20580;-66
2023/04/11 04:50:26;;;;;;;11.23;5.53;;;;;;;;;;5048379;28;20036;-68
2023/04/11 04:52:51;;;;;;;14.15;6.18;;;;;;;;;;5053675;28;20164;-65
2023/04/11 04:55:16;;;;;;;12.80;6.55;;;;;;;;;;5053997;28;20013;-67
2023/04/11 04:57:41;;;;;;;13.05;6.40;;;;;;;;;;5067746;28;20017;-67
2023/04/11 05:00:08;;;;;;;18.27;6.78;;;;;;;;;;5062233;28;20017;-69
2023/04/11 05:02:37;;;;;;;12.77;6.18;;;;;;;;;;5050446;28;20017;-67
2023/04/11 05:05:03;;;;;;;14.43;6.28;;;;;;;;;;5052182;28;20024;-66
2023/04/11 05:07:28;;;;;;;12.73;5.60;;;;;;;;;;5064052;28;20024;-66
2023/04/11 05:09:53;;;;;;;12.93;6.28;;;;;;;;;;5053316;28;20047;-68
2023/04/11 05:12:25;;;;;;;11.27;5.47;;;;;;;;;;5067693;28;20074;-63
2023/04/11 05:14:51;;;;;;;13.25;5.95;;;;;;;;;;5035400;28;20126;-65
2023/04/11 05:17:16;;;;;;;10.43;5.43;;;;;;;;;;5029079;28;20020;-68
2023/04/11 05:19:42;;;;;;;13.88;6.25;;;;;;;;;;5060757;28;20025;-66
2023/04/11 05:22:07;;;;;;;7.85;4.07;;;;;;;;;;5047413;28;20025;-68
2023/04/11 05:24:32;;;;;;;10.35;5.25;;;;;;;;;;5047150;28;20037;-69
2023/04/11 05:26:57;;;;;;;9.70;4.78;;;;;;;;;;5060273;28;20154;-67
2023/04/11 05:29:23;;;;;;;9.38;4.32;;;;;;;;;;5064940;28;20048;-69
2023/04/11 05:31:48;;;;;;;9.50;4.85;;;;;;;;;;5052010;28;20013;-68
2023/04/11 05:34:13;;;;;;;8.60;4.35;;;;;;;;;;5048776;28;20151;-70
2023/04/11 05:36:38;;;;;;;6.68;3.80;;;;;;;;;;5045761;28;20008;-66
2023/04/11 05:39:04;;;;;;;7.95;4.63;;;;;;;;;;5059939;28;20359;-69
2023/04/11 05:41:30;;;;;;;8.30;4.13;;;;;;;;;;5055789;28;20025;-67
2023/04/11 05:43:55;;;;;;;8.60;3.50;;;;;;;;;;5060995;28;20398;-70
2023/04/11 05:46:20;;;;;;;7.55;3.47;;;;;;;;;;5047446;28;20027;-66
2023/04/11 05:48:45;;;;;;;8.52;4.22;;;;;;;;;;5060167;28;20128;-67
2023/04/11 05:51:11;;;;;;;7.95;4.00;;;;;;;;;;5047540;28;20017;-68
2023/04/11 05:53:36;;;;;;;9.15;3.90;;;;;;;;;;5063076;28;20020;-68
2023/04/11 05:56:01;;;;;;;10.30;4.50;;;;;;;;;;5054710;28;20491;-69
2023/04/11 05:58:28;;;;;;;8.13;3.60;;;;;;;;;;5045250;28;20024;-65
2023/04/11 06:00:53;;;;;;;7.85;3.55;;;;;;;;;;5061559;28;20044;-69
2023/04/11 06:03:19;;;;;;;6.72;3.38;;;;;;;;;;5046253;28;20049;-69
2023/04/11 06:05:44;;;;;;;5.72;2.90;;;;;;;;;;5067298;28;20024;-68
2023/04/11 06:08:10;;;;;;;6.15;3.10;;;;;;;;;;5051735;28;20024;-67
2023/04/11 06:10:36;;;;;;;6.72;3.20;;;;;;;;;;5039433;28;20028;-66
2023/04/11 06:13:01;;;;;;;6.68;2.83;;;;;;;;;;5065855;28;20032;-68
2023/04/11 06:15:27;;;;;;;6.97;3.05;;;;;;;;;;5049998;28;20021;-64
2023/04/11 06:17:52;;;;;;;4.90;2.40;;;;;;;;;;5050356;28;20017;-69
2023/04/11 06:20:18;;;;;;;5.05;2.60;;;;;;;;;;5066431;28;20358;-68
2023/04/11 06:25:19;;;;;;;10.45;2.53;;;;;;;;;;5076120;22;20137;-89
2023/04/11 06:30:37;;;;;;;5.20;2.58;;;;;;;;;;5046225;28;20480;-91
2023/04/11 06:33:02;;;;;;;5.53;2.60;;;;;;;;;;5054609;28;20696;-89
2023/04/11 06:35:36;;;;;;;6.32;2.80;;;;;;;;;;5051485;28;20063;-90
2023/04/11 06:38:02;;;;;;;8.57;2.75;;;;;;;;;;5050463;28;20086;-89
2023/04/11 06:40:30;;;;;;;6.40;2.70;;;;;;;;;;5062941;28;20461;-91
2023/04/11 06:43:15;;;;;;;6.53;2.92;;;;;;;;;;5062301;28;20109;-89
2023/04/11 06:45:42;;;;;;;7.18;2.60;;;;;;;;;;5042930;28;20366;-90
2023/04/11 06:48:16;;;;;;;5.53;2.95;;;;;;;;;;5045488;28;20032;-89
2023/04/11 06:50:44;;;;;;;5.80;2.20;;;;;;;;;;5063008;28;20017;-89
2023/04/11 06:53:10;;;;;;;5.63;2.17;;;;;;;;;;5045444;28;20108;-90
2023/04/11 06:55:40;;;;;;;8.43;2.75;;;;;;;;;;5064238;28;20044;-89
2023/04/11 06:58:09;;;;;;;4.75;2.22;;;;;;;;;;5046119;28;20017;-89
2023/04/11 07:00:35;;;;;;;4.68;2.20;;;;;;;;;;5046790;28;20021;-88
2023/04/11 07:03:11;;;;;;;5.28;2.05;;;;;;;;;;5046169;28;20028;-89
2023/04/11 07:05:38;;;;;;;5.07;2.08;;;;;;;;;;5053718;28;20024;-90
2023/04/11 07:08:04;;;;;;;3.15;1.63;;;;;;;;;;5043342;28;20436;-88
2023/04/11 07:10:30;;;;;;;4.90;2.10;;;;;;;;;;5061845;28;20048;-90
2023/04/11 07:12:57;;;;;;;6.18;1.90;;;;;;;;;;5045550;28;20017;-89
2023/04/11 07:15:24;;;;;;;5.88;2.10;;;;;;;;;;5062657;28;20039;-90
2023/04/11 07:17:54;;;;;;;3.95;2.00;;;;;;;;;;5062015;28;20173;-92
2023/04/11 07:20:31;;;;;;;4.10;1.83;;;;;;;;;;5045707;28;20029;-89
2023/04/11 07:23:20;;;;;;;4.00;1.60;;;;;;;;;;5030807;28;20025;-93
2023/04/11 07:25:48;;;;;;;5.18;1.70;;;;;;;;;;5043104;28;20028;-92
2023/04/11 07:28:14;;;;;;;2.83;1.33;;;;;;;;;;5044440;28;20013;-89
2023/04/11 07:30:50;;;;;;;2.25;1.40;;;;;;;;;;5064147;28;20114;-90
2023/04/11 07:36:59;;;;;;;4.22;1.35;;;;;;;;;;4944749;29;20404;-91
2023/04/11 07:39:35;;;;;;;3.83;1.38;;;;;;;;;;4941055;29;20024;-89
2023/04/11 07:42:20;;;;;;;2.95;1.00;;;;;;;;;;4934108;29;20102;-88
2023/04/11 07:44:56;;;;;;;4.45;1.42;;;;;;;;;;4945564;29;20023;-92
2023/04/11 07:47:31;;;;;;;2.10;1.15;;;;;;;;;;4947856;29;20031;-90
2023/04/11 07:50:07;;;;;;;;;;;;;;;;;;;;;
2023/04/11 07:52:34;;;;;;;3.40;1.38;;;;;;;;;;4943397;29;20473;-90
2023/04/11 07:55:00;;;;;;;4.82;1.20;;;;;;;;;;4954967;29;20027;-89
2023/04/11 07:57:38;;;;;;;8.30;1.48;;;;;;;;;;4947743;29;20023;-91
2023/04/11 08:03:19;;;;;;;;;;;;;;;;;;;;;
2023/04/11 08:05:58;;;;;;;;;;;;;;;;;;;;;
2023/04/11 08:08:32;;;;;;;4.88;1.50;;;;;;;;;;4964098;29;20082;-90
2023/04/11 08:11:18;;;;;;;5.10;1.52;;;;;;;;;;4945111;29;20039;-91
2023/04/11 08:13:52;;;;;;;9.50;1.60;;;;;;;;;;5009754;28;20029;-92
2023/04/11 08:16:25;;;;;;;7.40;1.58;;;;;;;;;;5060264;28;20021;-90
2023/04/11 08:18:53;;;;;;;6.70;1.45;;;;;;;;;;5049092;28;20008;-89
2023/04/11 08:21:55;;;;;;;;;;;;;;;;;;;;;
2023/04/11 08:24:30;;;;;;;3.10;1.40;;;;;;;;;;5074863;28;20089;-89
2023/04/11 08:27:02;;;;;;;2.10;0.95;;;;;;;;;;5059384;28;20047;-88
2023/04/11 08:29:57;;;;;;;8.93;1.15;;;;;;;;;;5073341;28;20598;-89
2023/04/11 08:32:41;;;;;;;;;;;;;;;;;;;;;
2023/04/11 08:35:14;;;;;;;3.90;1.33;;;;;;;;;;5074815;28;20045;-88
2023/04/11 08:38:21;;;;;;;10.07;1.95;;;;;;;;;;5058667;28;20032;-91
2023/04/11 08:40:47;;;;;;;3.97;1.33;;;;;;;;;;5041179;22;20129;-70
2023/04/11 08:43:12;;;;;;;4.82;1.70;;;;;;;;;;5045905;28;20108;-69
2023/04/11 08:45:38;;;;;;;6.43;1.67;;;;;;;;;;5066804;28;20393;-68
2023/04/11 08:48:04;;;;;;;9.32;1.60;;;;;;;;;;5086964;22;20102;-63
2023/04/11 08:50:29;;;;;;;12.25;2.25;;;;;;;;;;5086079;28;20500;-62
2023/04/11 08:52:55;;;;;;;8.70;1.92;;;;;;;;;;5087651;28;20016;-63
2023/04/11 08:55:20;;;;;;;7.50;2.15;;;;;;;;;;5089404;28;20547;-64
2023/04/11 08:57:46;;;;;;;4.00;1.52;;;;;;;;;;5084612;28;20028;-63
2023/04/11 09:00:15;;;;;;;7.00;1.95;;;;;;;;;;5076528;28;20047;-64
2023/04/11 09:03:00;;;;;;;6.53;2.40;;;;;;;;;;5079549;28;20619;-62
2023/04/11 09:05:25;;;;;;;7.18;1.80;;;;;;;;;;5051952;28;20024;-63
2023/04/11 09:07:50;;;;;;;8.13;1.40;;;;;;;;;;5074466;28;20559;-62
2023/04/11 09:10:16;;;;;;;4.80;1.45;;;;;;;;;;5069718;28;20477;-63
2023/04/11 09:12:41;;;;;;;4.47;1.33;;;;;;;;;;5053423;28;20048;-63
2023/04/11 09:15:16;;;;;;;2.65;1.40;;;;;;;;;;5089810;28;20095;-64
2023/04/11 09:17:42;;;;;;;6.40;1.45;;;;;;;;;;5084693;28;20085;-60
2023/04/11 09:20:14;;;;;;;7.95;1.50;;;;;;;;;;5078856;28;20506;-63
2023/04/11 09:22:39;;;;;;;7.97;1.63;;;;;;;;;;5083414;28;20103;-62
2023/04/11 09:25:07;;;;;;;4.65;1.65;;;;;;;;;;5082915;28;20158;-62
2023/04/11 09:27:33;;;;;;;6.03;1.60;;;;;;;;;;5086895;28;20527;-61
2023/04/11 09:29:58;;;;;;;6.45;1.52;;;;;;;;;;5070003;28;20067;-63
2023/04/11 09:32:33;;;;;;;5.03;1.55;;;;;;;;;;5070364;28;20052;-60
2023/04/11 09:35:11;;;;;;;6.85;1.88;;;;;;;;;;5072492;28;20385;-64
2023/04/11 09:37:49;;;;;;;6.07;1.77;;;;;;;;;;5069572;28;20021;-62
2023/04/11 09:40:16;;;;;;;7.32;1.65;;;;;;;;;;5087703;28;20089;-64
2023/04/11 09:42:42;;;;;;;3.97;1.45;;;;;;;;;;5070313;28;20024;-66
2023/04/11 09:45:16;;;;;;;5.38;1.20;;;;;;;;;;5060726;28;20032;-61
2023/04/11 09:47:42;;;;;;;7.28;1.40;;;;;;;;;;5066120;28;20032;-63
2023/04/11 09:50:08;;;;;;;12.00;1.70;;;;;;;;;;5052954;28;20385;-64
2023/04/11 09:52:34;;;;;;;12.60;2.05;;;;;;;;;;5041297;28;20036;-62
2023/04/11 09:55:00;;;;;;;7.10;1.52;;;;;;;;;;5056947;28;20074;-61
2023/04/11 09:57:25;;;;;;;7.07;1.25;;;;;;;;;;5057173;28;20546;-62
2023/04/11 09:59:51;;;;;;;4.28;1.25;;;;;;;;;;5048827;28;20538;-60
2023/04/11 10:02:16;;;;;;;2.10;0.85;;;;;;;;;;5058798;28;20024;-64
2023/04/11 10:04:42;;;;;;;4.30;0.73;;;;;;;;;;5032317;28;20168;-66
2023/04/11 10:07:07;;;;;;;3.70;0.98;;;;;;;;;;5067035;28;20385;-62
2023/04/11 10:09:36;;;;;;;2.78;0.65;;;;;;;;;;5032464;28;20385;-63
2023/04/11 10:12:01;;;;;;;4.03;1.00;;;;;;;;;;5050622;28;20016;-62
2023/04/11 10:14:53;;;;;;;3.22;0.80;;;;;;;;;;5035352;28;20017;-63
2023/04/11 10:17:19;;;;;;;5.60;1.13;;;;;;;;;;5053639;28;20549;-63
2023/04/11 10:19:47;;;;;;;2.95;1.00;;;;;;;;;;5052008;28;20020;-60
2023/04/11 10:22:32;;;;;;;2.88;1.13;;;;;;;;;;5059282;28;20044;-60
2023/04/11 10:25:16;;;;;;;2.10;1.05;;;;;;;;;;5052633;28;20071;-63
2023/04/11 10:27:46;;;;;;;5.47;1.10;;;;;;;;;;5069671;28;20035;-60
2023/04/11 10:30:12;;;;;;;2.13;0.70;;;;;;;;;;5053551;28;20083;-61
2023/04/11 10:32:37;;;;;;;2.17;1.00;;;;;;;;;;5053263;28;20025;-61
2023/04/11 10:35:18;;;;;;;3.90;1.65;;;;;;;;;;5057553;28;20012;-63
2023/04/11 10:37:43;;;;;;;3.38;1.30;;;;;;;;;;5052977;28;20489;-63
2023/04/11 10:40:09;;;;;;;1.33;0.93;;;;;;;;;;5054195;28;20021;-62
2023/04/11 10:42:34;;;;;;;5.55;1.27;;;;;;;;;;5067950;28;20503;-66
2023/04/11 10:45:25;;;;;;;10.45;2.00;;;;;;;;;;5055977;28;20079;-64
2023/04/11 10:47:50;;;;;;;6.18;1.63;;;;;;;;;;5047959;28;20037;-64
2023/04/11 10:50:31;;;;;;;6.60;2.20;;;;;;;;;;5088585;28;20065;-63
2023/04/11 10:53:02;;;;;;;8.55;1.52;;;;;;;;;;5091249;28;20009;-61
2023/04/11 10:55:28;;;;;;;5.97;1.70;;;;;;;;;;5078173;28;20070;-60
2023/04/11 10:58:02;;;;;;;7.75;2.08;;;;;;;;;;5072562;28;20039;-63
2023/04/11 11:00:28;;;;;;;4.20;1.63;;;;;;;;;;5073152;28;20016;-63
2023/04/11 11:02:53;;;;;;;6.60;1.55;;;;;;;;;;5054752;28;20040;-62
2023/04/11 11:05:19;;;;;;;4.78;1.63;;;;;;;;;;5072843;28;20111;-64
2023/04/11 11:07:45;;;;;;;6.63;1.80;;;;;;;;;;5085224;28;20443;-64
2023/04/11 11:10:10;;;;;;;3.55;1.40;;;;;;;;;;5072566;28;20060;-62
2023/04/11 11:12:36;;;;;;;5.50;1.42;;;;;;;;;;5077196;28;20047;-61
2023/04/11 11:15:11;;;;;;;4.55;1.58;;;;;;;;;;5078527;28;20063;-66
2023/04/11 11:17:36;;;;;;;3.90;1.25;;;;;;;;;;5073409;28;20024;-61
2023/04/11 11:20:08;;;;;;;7.10;1.65;;;;;;;;;;5090555;28;20031;-62
2023/04/11 11:22:34;;;;;;;4.22;1.55;;;;;;;;;;5087677;28;20036;-63
2023/04/11 11:25:08;;;;;;;4.22;1.58;;;;;;;;;;5071331;28;20024;-66
2023/04/11 11:27:33;;;;;;;5.22;1.48;;;;;;;;;;5072668;28;20664;-66
2023/04/11 11:30:09;;;;;;;4.55;1.20;;;;;;;;;;5072980;28;20056;-67
2023/04/11 11:32:34;;;;;;;1.67;1.00;;;;;;;;;;5085485;28;20020;-66
2023/04/11 11:35:11;;;;;;;4.60;0.98;;;;;;;;;;5060676;28;20031;-58
2023/04/11 11:37:36;;;;;;;3.50;1.13;;;;;;;;;;5076895;28;20620;-63
2023/04/11 11:40:05;;;;;;;4.10;0.95;;;;;;;;;;5074810;28;20071;-63
2023/04/11 11:42:31;;;;;;;7.45;1.50;;;;;;;;;;5072943;28;20035;-62
2023/04/11 11:45:12;;;;;;;6.45;1.60;;;;;;;;;;5080894;28;20035;-63
2023/04/11 11:47:44;;;;;;;1.30;0.93;;;;;;;;;;5090635;28;20020;-64
2023/04/11 11:50:10;;;;;;;2.47;1.02;;;;;;;;;;5091225;28;20020;-64
2023/04/11 11:52:40;;;;;;;1.98;1.05;;;;;;;;;;5092080;28;20024;-61
2023/04/11 11:55:08;;;;;;;5.03;1.20;;;;;;;;;;5081170;28;20020;-64
2023/04/11 11:57:42;;;;;;;5.00;1.25;;;;;;;;;;5070953;28;20020;-66
2023/04/11 12:00:09;;;;;;;9.77;1.50;;;;;;;;;;5091719;28;20467;-62
2023/04/11 12:02:35;;;;;;;5.70;1.73;;;;;;;;;;5091551;28;20058;-63
2023/04/11 12:05:02;;;;;;;7.70;2.67;;;;;;;;;;5058372;28;20056;-64
2023/04/11 12:07:36;;;;;;;2.08;1.35;;;;;;;;;;5071480;28;20035;-60
2023/04/11 12:10:07;;;;;;;6.88;1.50;;;;;;;;;;5071250;28;20028;-65
2023/04/11 12:12:36;;;;;;;4.82;1.98;;;;;;;;;;5070748;28;20057;-64
2023/04/11 12:15:02;;;;;;;;;;;;;;;;;;5071626;28;20436;-62
2023/04/11 12:17:31;;;;;;;4.65;1.85;;;;;;;;;;5071483;28;20407;-62
2023/04/11 12:19:56;;;;;;;5.15;2.15;;;;;;;;;;5074493;28;20038;-62
2023/04/11 12:22:21;;;;;;;9.05;2.15;;;;;;;;;;5086389;28;20028;-60
2023/04/11 12:24:50;;;;;;;3.60;1.40;;;;;;;;;;5072447;28;20024;-63
2023/04/11 12:27:15;;;;;;;;;;;;;;;;;;5072529;28;20024;-64
2023/04/11 12:29:41;;;;;;;4.90;1.45;;;;;;;;;;5071587;28;19915;-61
2023/04/11 12:32:06;;;;;;;4.18;1.75;;;;;;;;;;5087247;28;20047;-64
2023/04/11 12:34:31;;;;;;;6.95;1.48;;;;;;;;;;5073361;28;20024;-61
2023/04/11 12:36:56;;;;;;;12.45;2.15;;;;;;;;;;5077009;28;20012;-62
2023/04/11 12:39:22;;;;;;;3.85;1.33;;;;;;;;;;5070790;28;20070;-64
2023/04/11 12:41:47;;;;;;;2.80;1.20;;;;;;;;;;5071686;28;20466;-63
2023/04/11 12:44:12;;;;;;;7.90;2.35;;;;;;;;;;5070576;28;20031;-62
2023/04/11 12:46:38;;;;;;;4.68;1.70;;;;;;;;;;5070625;28;20021;-61
2023/04/11 12:49:03;;;;;;;7.80;2.22;;;;;;;;;;5069688;28;20031;-63
2023/04/11 12:51:28;;;;;;;4.28;1.60;;;;;;;;;;5096633;28;20019;-61
2023/04/11 12:53:53;;;;;;;10.70;2.28;;;;;;;;;;5080987;28;20020;-64
2023/04/11 12:56:19;;;;;;;8.00;1.70;;;;;;;;;;5069498;28;20013;-61
2023/04/11 12:58:44;;;;;;;8.38;1.65;;;;;;;;;;5069429;28;20088;-63
2023/04/11 13:01:10;;;;;;;6.05;1.85;;;;;;;;;;5069860;28;20017;-63
2023/04/11 13:03:37;;;;;;;8.77;1.60;;;;;;;;;;5069680;28;20012;-61
2023/04/11 13:06:02;;;;;;;6.60;2.00;;;;;;;;;;5077398;28;20024;-63
2023/04/11 13:08:27;;;;;;;8.70;1.92;;;;;;;;;;5072499;28;20103;-60
2023/04/11 13:10:52;;;;;;;6.97;1.95;;;;;;;;;;5069436;28;20052;-63
2023/04/11 13:13:17;;;;;;;7.85;2.35;;;;;;;;;;5078939;28;20103;-62
2023/04/11 13:15:43;;;;;;;6.22;2.00;;;;;;;;;;5071916;28;20016;-63
2023/04/11 13:18:08;;;;;;;5.22;1.63;;;;;;;;;;5074373;28;20055;-61
2023/04/11 13:20:33;;;;;;;7.65;1.55;;;;;;;;;;5084847;28;20130;-63
2023/04/11 13:22:58;;;;;;;9.45;2.72;;;;;;;;;;5077690;28;20028;-61
2023/04/11 13:25:24;;;;;;;8.15;1.80;;;;;;;;;;5069078;28;20029;-62
2023/04/11 13:27:49;;;;;;;8.95;2.15;;;;;;;;;;5069291;28;20106;-61
2023/04/11 13:30:14;;;;;;;6.00;1.52;;;;;;;;;;5070557;28;20078;-61
2023/04/11 13:32:40;;;;;;;10.18;1.95;;;;;;;;;;5087334;28;20677;-61
2023/04/11 13:35:05;;;;;;;7.47;2.15;;;;;;;;;;5076093;28;20477;-60
2023/04/11 13:37:31;;;;;;;9.63;2.00;;;;;;;;;;5071287;28;20499;-62
2023/04/11 13:39:56;;;;;;;5.93;1.85;;;;;;;;;;5069324;28;20401;-63
2023/04/11 13:42:21;;;;;;;9.30;1.95;;;;;;;;;;5069650;28;20076;-64
2023/04/11 13:44:47;;;;;;;6.60;1.92;;;;;;;;;;5076461;28;20118;-63
2023/04/11 13:47:12;;;;;;;6.63;1.98;;;;;;;;;;5084508;28;20027;-64
2023/04/11 13:49:37;;;;;;;6.30;1.67;;;;;;;;;;5078569;28;20072;-63
2023/04/11 13:52:02;;;;;;;8.77;1.65;;;;;;;;;;5104852;28;20019;-66
2023/04/11 13:54:29;;;;;;;6.55;1.88;;;;;;;;;;5083008;28;20026;-63
2023/04/11 13:56:55;;;;;;;5.05;1.42;;;;;;;;;;5095917;28;20035;-64
2023/04/11 13:59:20;;;;;;;6.93;1.92;;;;;;;;;;5076039;28;20031;-61
2023/04/11 14:01:45;;;;;;;6.65;1.73;;;;;;;;;;5076239;28;20025;-62
2023/04/11 14:04:10;;;;;;;9.45;1.55;;;;;;;;;;5076368;28;20026;-64
2023/04/11 14:06:36;;;;;;;5.53;1.50;;;;;;;;;;5086176;28;20038;-62
2023/04/11 14:09:03;;;;;;;7.25;1.55;;;;;;;;;;5075824;28;20639;-62
2023/04/11 14:11:28;;;;;;;3.10;1.10;;;;;;;;;;5075599;28;20070;-61
2023/04/11 14:13:54;;;;;;;2.90;1.20;;;;;;;;;;5075264;28;20024;-61
2023/04/11 14:16:19;;;;;;;6.05;1.60;;;;;;;;;;5076213;28;20492;-60
2023/04/11 14:18:45;;;;;;;12.88;1.73;;;;;;;;;;5094309;28;20054;-62
2023/04/11 14:21:10;;;;;;;8.05;1.15;;;;;;;;;;5084547;28;20024;-62
2023/04/11 14:23:36;;;;;;;3.22;1.10;;;;;;;;;;5082412;28;20085;-61
2023/04/11 14:26:01;;;;;;;7.97;1.63;;;;;;;;;;5090250;28;20392;-63
2023/04/11 14:28:26;;;;;;;3.42;0.88;;;;;;;;;;5087396;28;20042;-65
2023/04/11 14:30:51;;;;;;;2.97;1.10;;;;;;;;;;5084330;28;20103;-64
2023/04/11 14:33:17;;;;;;;2.28;0.70;;;;;;;;;;5104102;28;20017;-63
2023/04/11 14:35:45;;;;;;;0.95;0.60;;;;;;;;;;5075005;28;20090;-64
2023/04/11 14:38:11;;;;;;;1.65;0.60;;;;;;;;;;5083786;28;20040;-63
2023/04/11 14:40:36;;;;;;;2.08;0.95;;;;;;;;;;5091029;28;20067;-63
2023/04/11 14:43:01;;;;;;;3.15;0.90;;;;;;;;;;5077911;28;20024;-62
2023/04/11 14:45:26;;;;;;;3.90;0.60;;;;;;;;;;5095483;28;20161;-64
2023/04/11 14:50:20;;;;;;;2.60;0.63;;;;;;;;;;5045626;28;20105;-67
2023/04/11 14:52:47;;;;;;;4.75;0.88;;;;;;;;;;5053182;28;20286;-69
2023/04/11 14:55:12;;;;;;;3.78;0.98;;;;;;;;;;5054182;28;20048;-69
2023/04/11 14:57:41;;;;;;;4.90;0.93;;;;;;;;;;5053478;28;20048;-71
2023/04/11 15:00:08;;;;;;;5.72;1.10;;;;;;;;;;5046930;28;20041;-66